Time;durP1;ratioP1;P1;durP2;ratioP2;P2;SDS_P1;SDS_P2;PMS_P1;PMS_P2;Temp;Humidity;BMP_temperature;BMP_pressure;BME280_temperature;BME280_humidity;BME280_pressure;Samples;Min_cycle;Max_cycle;Signal;HPM_P1;HPM_P2
2022/08/11 00:01:18;;;;;;;2.58;1.45;;;26.50;61.40;;;;;;4956545;29;20469;-70
2022/08/11 00:03:56;;;;;;;3.42;1.30;;;26.50;61.30;;;;;;4956137;29;20031;-70
2022/08/11 00:06:29;;;;;;;3.08;1.20;;;26.50;61.20;;;;;;4956672;29;20107;-71
2022/08/11 00:08:56;;;;;;;3.75;1.10;;;26.50;61.20;;;;;;4956534;29;20488;-66
2022/08/11 00:11:35;;;;;;;1.85;1.20;;;26.60;61.20;;;;;;4956367;29;20428;-65
2022/08/11 00:14:03;;;;;;;3.05;1.10;;;26.50;61.30;;;;;;4959456;28;20075;-65
2022/08/11 00:16:29;;;;;;;2.50;1.42;;;26.60;61.00;;;;;;4961609;28;20424;-66
2022/08/11 00:18:56;;;;;;;2.15;1.40;;;26.50;61.00;;;;;;4955234;29;20484;-65
2022/08/11 00:21:23;;;;;;;2.55;1.58;;;26.60;61.10;;;;;;4954949;28;20031;-67
2022/08/11 00:24:02;;;;;;;3.53;1.40;;;26.50;61.00;;;;;;4956278;29;20114;-65
2022/08/11 00:26:29;;;;;;;4.65;1.65;;;26.50;61.00;;;;;;4954609;29;20396;-65
2022/08/11 00:28:55;;;;;;;3.78;1.25;;;26.50;60.90;;;;;;4955910;29;20114;-64
2022/08/11 00:31:26;;;;;;;3.72;1.35;;;26.50;60.80;;;;;;4955911;28;20469;-66
2022/08/11 00:33:52;;;;;;;2.47;1.50;;;26.50;60.70;;;;;;4955527;29;20031;-66
2022/08/11 00:36:22;;;;;;;5.20;1.77;;;26.50;60.60;;;;;;4955698;29;20035;-64
2022/08/11 00:38:50;;;;;;;3.22;1.77;;;26.50;60.60;;;;;;4955872;29;20031;-64
2022/08/11 00:41:44;;;;;;;2.88;1.80;;;26.60;60.50;;;;;;4956020;29;20085;-66
2022/08/11 00:44:37;;;;;;;2.72;1.30;;;26.50;60.40;;;;;;4955743;29;20035;-66
2022/08/11 00:47:18;;;;;;;4.38;1.40;;;26.50;60.40;;;;;;4955320;29;20078;-64
2022/08/11 00:50:01;;;;;;;3.83;1.63;;;26.50;60.30;;;;;;4955682;29;20051;-64
2022/08/11 00:53:06;;;;;;;2.70;1.75;;;26.50;60.00;;;;;;4970514;28;20576;-65
2022/08/11 00:55:55;;;;;;;3.90;1.90;;;26.50;60.10;;;;;;4955238;29;20038;-64
2022/08/11 00:58:58;;;;;;;2.50;1.58;;;26.50;60.00;;;;;;4955780;29;20106;-64
2022/08/11 01:01:35;;;;;;;2.42;1.50;;;26.50;59.80;;;;;;4955051;28;20051;-65
2022/08/11 01:04:43;;;;;;;5.07;1.48;;;26.50;59.70;;;;;;4955376;29;20109;-65
2022/08/11 01:07:29;;;;;;;3.10;1.50;;;26.50;59.70;;;;;;4955373;29;20536;-64
2022/08/11 01:10:32;;;;;;;3.38;1.58;;;26.50;59.70;;;;;;4955155;29;20035;-65
2022/08/11 01:13:35;;;;;;;3.67;1.75;;;26.50;59.60;;;;;;4955370;28;20495;-65
2022/08/11 01:16:52;;;;;;;2.58;1.40;;;26.50;59.60;;;;;;4954977;28;20109;-64
2022/08/11 01:19:49;;;;;;;4.65;1.52;;;26.50;60.00;;;;;;4955202;28;20503;-65
2022/08/11 01:22:24;;;;;;;4.30;1.60;;;26.50;59.60;;;;;;4955227;29;20027;-64
2022/08/11 01:25:08;;;;;;;3.92;1.35;;;26.50;59.70;;;;;;4954918;29;20023;-65
2022/08/11 01:27:48;;;;;;;3.28;1.50;;;26.40;59.50;;;;;;4955156;28;20098;-64
2022/08/11 01:30:36;;;;;;;3.38;1.70;;;26.40;59.50;;;;;;4955021;28;20023;-64
2022/08/11 01:33:31;;;;;;;2.92;1.52;;;26.40;59.60;;;;;;4955043;28;20365;-64
2022/08/11 01:36:27;;;;;;;2.83;1.60;;;26.40;59.50;;;;;;4954648;28;20401;-64
2022/08/11 01:39:17;;;;;;;2.25;1.35;;;26.40;59.40;;;;;;4954947;29;20023;-64
2022/08/11 01:45:25;;;;;;;4.47;1.45;;;26.30;59.10;;;;;;4954896;29;20038;-64
2022/08/11 01:48:08;;;;;;;3.15;1.63;;;26.40;59.20;;;;;;4954987;29;20031;-64
2022/08/11 01:50:50;;;;;;;1.88;1.20;;;26.30;59.20;;;;;;4954821;29;20035;-65
2022/08/11 01:53:34;;;;;;;;;;;26.30;59.20;;;;;;4955326;29;20491;-67
2022/08/11 01:56:04;;;;;;;2.25;1.40;;;26.40;58.50;;;;;;4954803;29;19913;-67
2022/08/11 01:58:38;;;;;;;5.55;1.75;;;26.30;58.90;;;;;;4955106;29;20362;-70
2022/08/11 02:01:24;;;;;;;4.95;1.75;;;26.20;59.00;;;;;;4954767;29;20066;-66
2022/08/11 02:04:38;;;;;;;4.78;1.70;;;26.20;59.00;;;;;;4954995;29;20036;-65
2022/08/11 02:07:29;;;;;;;3.85;2.15;;;26.20;58.60;;;;;;4910104;29;20039;-65
2022/08/11 02:13:13;;;;;;;4.38;1.85;;;26.20;58.70;;;;;;4955556;29;20042;-64
2022/08/11 02:15:49;;;;;;;2.67;1.63;;;26.20;58.90;;;;;;4954330;29;20111;-64
2022/08/11 02:23:38;;;;;;;4.00;1.90;;;26.20;58.90;;;;;;4954755;29;20034;-65
2022/08/11 02:24:33;;;;;;;7.07;1.90;;;26.10;58.80;;;;;;4955073;29;20047;-64
2022/08/11 02:27:05;;;;;;;8.88;2.08;;;26.10;58.80;;;;;;4954590;29;20019;-64
2022/08/11 02:29:32;;;;;;;;;;;26.10;58.90;;;;;;4954809;29;20058;-64
2022/08/11 02:35:22;;;;;;;4.22;2.00;;;26.10;59.00;;;;;;4954810;29;20472;-64
2022/08/11 02:37:50;;;;;;;3.72;1.90;;;26.00;58.70;;;;;;4954474;29;20039;-64
2022/08/11 02:40:41;;;;;;;2.22;1.52;;;26.00;59.00;;;;;;4954582;29;20473;-64
2022/08/11 02:43:19;;;;;;;2.03;1.73;;;26.00;59.20;;;;;;4953915;29;20082;-64
2022/08/11 02:45:59;;;;;;;2.67;1.90;;;26.00;59.10;;;;;;4957640;29;20028;-64
2022/08/11 02:51:58;;;;;;;4.13;1.70;;;25.90;58.80;;;;;;4957799;29;20054;-65
2022/08/11 02:54:37;;;;;;;4.68;2.38;;;26.00;59.10;;;;;;4957992;29;20166;-64
2022/08/11 02:57:20;;;;;;;3.53;2.30;;;25.90;59.20;;;;;;4957818;29;20106;-64
2022/08/11 03:00:03;;;;;;;3.97;2.13;;;25.90;59.00;;;;;;4957729;28;20027;-64
2022/08/11 03:02:31;;;;;;;;;;;25.90;59.20;;;;;;4958058;28;20042;-65
2022/08/11 03:05:10;;;;;;;8.57;2.25;;;25.90;58.40;;;;;;4957746;28;19962;-64
2022/08/11 03:07:39;;;;;;;8.98;2.08;;;25.80;59.00;;;;;;4957535;28;20107;-64
2022/08/11 03:10:09;;;;;;;4.30;1.75;;;25.80;59.10;;;;;;4972579;28;20495;-65
2022/08/11 03:16:44;;;;;;;4.90;2.22;;;25.70;59.20;;;;;;4957522;29;20026;-64
2022/08/11 03:18:56;;;;;;;5.15;2.92;;;25.80;59.20;;;;;;4957220;28;20126;-64
2022/08/11 03:21:35;;;;;;;4.18;2.65;;;25.70;59.10;;;;;;4957516;29;20547;-64
2022/08/11 03:24:19;;;;;;;3.90;2.45;;;25.70;59.20;;;;;;4957059;29;20082;-65
2022/08/11 03:27:11;;;;;;;6.57;2.25;;;25.60;59.10;;;;;;4957476;28;20031;-70
2022/08/11 03:29:46;;;;;;;5.85;2.40;;;25.70;59.40;;;;;;4936566;29;20035;-68
2022/08/11 03:32:40;;;;;;;4.68;2.28;;;25.70;59.30;;;;;;4956948;29;20030;-71
2022/08/11 03:35:08;;;;;;;2.90;2.28;;;25.60;59.10;;;;;;4956838;29;20026;-69
2022/08/11 03:37:49;;;;;;;7.18;2.42;;;25.60;59.50;;;;;;4956824;29;20043;-69
2022/08/11 03:43:28;;;;;;;4.80;2.85;;;25.60;59.60;;;;;;4956490;29;20163;-70
2022/08/11 03:46:02;;;;;;;4.18;2.20;;;25.50;59.40;;;;;;4957003;28;20039;-71
2022/08/11 03:48:59;;;;;;;4.53;2.50;;;25.50;59.60;;;;;;4956750;29;20385;-71
2022/08/11 03:52:14;;;;;;;7.32;3.08;;;25.50;59.60;;;;;;4956805;29;20031;-71
2022/08/11 03:54:46;;;;;;;4.18;2.65;;;25.50;59.60;;;;;;4936209;28;20039;-71
2022/08/11 03:57:40;;;;;;;4.53;2.70;;;25.50;59.90;;;;;;4955366;29;20074;-69
2022/08/11 04:00:25;;;;;;;4.18;2.38;;;25.40;59.70;;;;;;4956734;29;20027;-71
2022/08/11 04:03:06;;;;;;;4.18;2.75;;;25.40;60.00;;;;;;4971150;28;20035;-69
2022/08/11 04:05:38;;;;;;;5.32;2.30;;;25.40;59.90;;;;;;4956564;28;20030;-71
2022/08/11 04:08:25;;;;;;;3.17;2.33;;;25.40;60.00;;;;;;4956278;28;20039;-69
2022/08/11 04:11:18;;;;;;;3.97;2.13;;;25.30;60.10;;;;;;4971088;28;20032;-70
2022/08/11 04:17:31;;;;;;;7.05;3.20;;;25.30;60.10;;;;;;4956640;29;20082;-67
2022/08/11 04:20:28;;;;;;;4.25;2.75;;;25.30;60.10;;;;;;4956132;28;20469;-64
2022/08/11 04:23:18;;;;;;;5.57;2.42;;;25.20;60.30;;;;;;4956136;29;20039;-64
2022/08/11 04:26:02;;;;;;;5.47;2.78;;;25.20;60.30;;;;;;4955982;29;20158;-64
2022/08/11 04:29:02;;;;;;;5.40;2.95;;;25.20;60.40;;;;;;4955869;28;20027;-64
2022/08/11 04:31:38;;;;;;;4.63;2.78;;;25.20;60.30;;;;;;4955962;29;20477;-64
2022/08/11 04:34:31;;;;;;;5.18;3.10;;;25.10;60.40;;;;;;4956011;28;20054;-65
2022/08/11 04:40:27;;;;;;;7.82;2.70;;;25.10;60.60;;;;;;4955354;29;20065;-64
2022/08/11 04:43:20;;;;;;;5.05;2.97;;;25.10;60.50;;;;;;4955755;28;20086;-64
2022/08/11 04:46:05;;;;;;;;;;;25.10;60.70;;;;;;4956034;29;20027;-64
2022/08/11 05:01:41;;;;;;;5.40;2.70;;;24.90;60.90;;;;;;4956304;28;20054;-65
2022/08/11 05:07:37;;;;;;;7.57;3.20;;;24.90;61.20;;;;;;4953728;28;20119;-68
2022/08/11 05:10:27;;;;;;;6.07;3.13;;;24.90;61.20;;;;;;4955016;28;20388;-64
2022/08/11 05:27:09;;;;;;;7.63;2.90;;;24.90;61.40;;;;;;4955366;29;20472;-65
2022/08/11 05:36:44;;;;;;;10.63;3.55;;;24.80;61.90;;;;;;4955360;29;20070;-66
2022/08/11 05:56:15;;;;;;;8.50;3.95;;;24.80;62.10;;;;;;4955104;29;20118;-66
2022/08/11 05:58:43;;;;;;;8.52;4.30;;;24.80;62.10;;;;;;4955017;29;20082;-65
2022/08/11 06:01:11;;;;;;;7.40;3.90;;;24.70;62.60;;;;;;4954487;29;20465;-66
2022/08/11 06:06:23;;;;;;;11.75;5.05;;;24.80;62.10;;;;;;4954649;29;20050;-67
2022/08/11 06:08:55;;;;;;;12.07;3.58;;;24.80;62.10;;;;;;4954965;29;20036;-70
2022/08/11 06:11:23;;;;;;;5.53;3.92;;;24.80;62.10;;;;;;4954707;29;20026;-65
2022/08/11 06:13:51;;;;;;;9.10;4.20;;;24.80;62.10;;;;;;4954799;29;20563;-67
2022/08/11 06:16:24;;;;;;;11.18;4.70;;;24.80;62.20;;;;;;4954762;29;20023;-65
2022/08/11 06:18:50;;;;;;;8.77;3.80;;;24.80;62.20;;;;;;4955109;28;20024;-68
2022/08/11 06:21:17;;;;;;;8.85;4.10;;;24.80;62.30;;;;;;4956926;29;20026;-64
2022/08/11 06:23:43;;;;;;;11.07;3.13;;;24.80;62.40;;;;;;4958358;29;20039;-65
2022/08/11 06:26:11;;;;;;;7.63;4.45;;;24.90;62.50;;;;;;4958120;29;20035;-65
2022/08/11 06:28:40;;;;;;;8.20;3.97;;;24.80;62.30;;;;;;4958513;29;20065;-65
2022/08/11 06:31:15;;;;;;;7.57;4.00;;;24.80;62.30;;;;;;4958122;29;20062;-64
2022/08/11 06:34:06;;;;;;;9.63;3.67;;;24.90;62.30;;;;;;4958405;29;20027;-64
2022/08/11 06:36:46;;;;;;;13.00;3.97;;;24.90;62.50;;;;;;4950830;29;20098;-64
2022/08/11 06:39:22;;;;;;;8.65;3.63;;;24.90;62.40;;;;;;4958280;29;20031;-66
2022/08/11 06:41:52;;;;;;;9.18;3.90;;;24.90;62.50;;;;;;4958038;29;20046;-65
2022/08/11 06:44:28;;;;;;;6.78;3.70;;;24.90;62.50;;;;;;4957858;29;20512;-67
2022/08/11 06:46:59;;;;;;;9.13;4.03;;;24.90;62.50;;;;;;4957922;29;20050;-69
2022/08/11 06:52:27;;;;;;;12.13;3.20;;;24.90;62.70;;;;;;4957874;29;20039;-65
2022/08/11 06:55:04;;;;;;;8.32;3.17;;;25.00;62.70;;;;;;4957906;29;20487;-64
2022/08/11 07:00:27;;;;;;;7.38;3.05;;;25.00;62.80;;;;;;4957930;29;20042;-64
2022/08/11 07:03:11;;;;;;;3.42;2.60;;;25.00;62.70;;;;;;4957521;29;20079;-64
2022/08/11 07:05:43;;;;;;;6.40;3.35;;;25.00;62.80;;;;;;4957363;29;20027;-70
2022/08/11 07:17:19;;;;;;;11.77;3.10;;;25.20;62.40;;;;;;4957340;29;20042;-66
2022/08/11 07:28:54;;;;;;;5.07;2.05;;;25.10;63.10;;;;;;4957223;29;20496;-65
2022/08/11 07:31:13;;;;;;;3.85;1.90;;;25.30;63.10;;;;;;4958227;28;20042;-65
2022/08/11 07:34:19;;;;;;;4.28;1.90;;;25.30;63.00;;;;;;4958700;29;20042;-68
2022/08/11 07:36:51;;;;;;;4.93;2.38;;;25.30;63.10;;;;;;4956708;29;20489;-66
2022/08/11 07:39:25;;;;;;;4.63;2.17;;;25.30;63.00;;;;;;4957054;29;20106;-70
2022/08/11 07:41:53;;;;;;;4.82;2.38;;;25.40;63.60;;;;;;4956667;29;20480;-65
2022/08/11 07:44:20;;;;;;;3.15;1.98;;;25.40;63.00;;;;;;4956905;29;20195;-69
2022/08/11 07:52:32;;;;;;;3.88;2.28;;;25.50;63.30;;;;;;4956915;29;20086;-70
2022/08/11 07:55:01;;;;;;;5.72;2.30;;;25.50;63.00;;;;;;4956656;29;20034;-69
2022/08/11 08:19:32;;;;;;;3.33;2.00;;;25.70;63.00;;;;;;4956350;29;20034;-64
2022/08/11 08:21:58;;;;;;;3.13;1.70;;;25.70;63.00;;;;;;4956646;29;20031;-64
2022/08/11 08:24:24;;;;;;;2.97;1.80;;;25.70;63.00;;;;;;4956687;29;20066;-64
2022/08/11 08:27:00;;;;;;;8.65;2.40;;;25.70;63.00;;;;;;4956388;29;20031;-64
2022/08/11 08:32:21;;;;;;;2.75;1.83;;;25.80;62.60;;;;;;4956017;29;20178;-65
2022/08/11 08:34:49;;;;;;;4.22;2.25;;;25.90;62.40;;;;;;4955734;29;20026;-64
2022/08/11 08:37:19;;;;;;;1.88;1.45;;;25.90;62.50;;;;;;4955879;29;20086;-64
2022/08/11 08:39:46;;;;;;;2.58;1.75;;;25.90;62.50;;;;;;4955669;28;20029;-64
2022/08/11 08:42:18;;;;;;;2.75;1.80;;;26.00;62.50;;;;;;4953861;28;20027;-64
2022/08/11 08:44:55;;;;;;;3.10;1.80;;;26.00;62.40;;;;;;4955616;29;20539;-65
2022/08/11 08:47:25;;;;;;;3.90;1.70;;;26.00;62.50;;;;;;4955406;29;20026;-64
2022/08/11 08:50:00;;;;;;;2.75;1.77;;;26.00;62.40;;;;;;4955436;29;20023;-64
2022/08/11 08:52:33;;;;;;;4.10;1.70;;;26.00;62.40;;;;;;4955587;29;20019;-64
2022/08/11 08:55:03;;;;;;;2.40;1.90;;;26.00;62.30;;;;;;4955506;29;20429;-64
2022/08/11 08:57:32;;;;;;;2.75;1.90;;;26.10;62.30;;;;;;4955519;29;20050;-64
2022/08/11 08:59:58;;;;;;;2.92;1.80;;;26.10;62.40;;;;;;4955224;29;20069;-65
2022/08/11 09:02:25;;;;;;;2.85;1.98;;;26.10;62.30;;;;;;4955338;29;20388;-65
2022/08/11 09:04:52;;;;;;;2.67;1.73;;;26.10;62.30;;;;;;4955504;29;20015;-64
2022/08/11 09:07:22;;;;;;;4.65;2.20;;;26.20;62.30;;;;;;4955371;29;20028;-64
2022/08/11 09:09:53;;;;;;;2.55;1.80;;;26.20;62.40;;;;;;4955496;29;20049;-65
2022/08/11 09:12:19;;;;;;;2.58;1.90;;;26.20;62.30;;;;;;4955271;29;20030;-65
2022/08/11 09:15:02;;;;;;;2.88;1.80;;;26.20;62.90;;;;;;4954996;29;20023;-64
2022/08/11 09:17:29;;;;;;;;;;;26.20;62.20;;;;;;4955785;29;20061;-64
2022/08/11 09:19:59;;;;;;;3.38;1.75;;;26.20;62.00;;;;;;4955194;28;19906;-64
2022/08/11 09:28:00;;;;;;;3.25;1.92;;;26.30;62.70;;;;;;4955649;29;20470;-64
2022/08/11 09:30:27;;;;;;;2.72;1.55;;;26.30;62.10;;;;;;4954802;29;20030;-64
2022/08/11 09:33:01;;;;;;;3.60;1.60;;;26.30;62.10;;;;;;4955181;29;20102;-65
2022/08/11 09:35:28;;;;;;;1.98;1.60;;;26.40;62.10;;;;;;4954798;29;20051;-64
2022/08/11 09:40:46;;;;;;;2.85;1.73;;;26.40;61.90;;;;;;4955421;29;20082;-64
2022/08/11 09:46:00;;;;;;;1.75;1.50;;;26.40;61.90;;;;;;4955192;29;20038;-64
2022/08/11 09:48:30;;;;;;;3.03;1.73;;;26.50;61.90;;;;;;4955127;29;20019;-66
2022/08/11 09:50:59;;;;;;;3.58;1.77;;;26.40;61.80;;;;;;4954801;29;20023;-66
2022/08/11 09:53:28;;;;;;;2.92;1.88;;;26.40;61.80;;;;;;4954667;28;20086;-66
2022/08/11 09:55:54;;;;;;;2.25;1.75;;;26.50;61.90;;;;;;4958831;29;20031;-65
2022/08/11 09:58:21;;;;;;;1.55;1.40;;;26.50;61.80;;;;;;4958643;29;20034;-65
2022/08/11 10:00:49;;;;;;;1.98;1.60;;;26.50;61.70;;;;;;4957452;29;20061;-65
2022/08/11 10:03:19;;;;;;;2.47;1.52;;;26.40;61.70;;;;;;4958560;29;20063;-65
2022/08/11 10:08:41;;;;;;;3.28;1.50;;;26.40;61.80;;;;;;4958799;29;20451;-64
2022/08/11 10:11:22;;;;;;;3.88;1.92;;;26.50;61.70;;;;;;4958525;29;20023;-65
2022/08/11 10:16:40;;;;;;;1.70;1.40;;;26.50;61.60;;;;;;4958428;29;20102;-64
2022/08/11 10:19:08;;;;;;;3.17;1.58;;;26.50;61.70;;;;;;4958444;29;20420;-64
2022/08/11 10:21:41;;;;;;;2.40;1.85;;;26.50;61.70;;;;;;4958090;29;20094;-65
2022/08/11 10:26:55;;;;;;;2.38;1.90;;;26.60;61.50;;;;;;4958300;29;20042;-64
2022/08/11 10:34:53;;;;;;;3.67;1.85;;;26.50;61.40;;;;;;4958501;29;20038;-64
2022/08/11 10:37:22;;;;;;;2.28;1.70;;;26.50;61.40;;;;;;4957860;29;20039;-68
2022/08/11 10:39:48;;;;;;;2.05;1.77;;;26.50;61.40;;;;;;4958188;29;20031;-64
2022/08/11 10:45:00;;;;;;;1.95;1.35;;;26.50;61.40;;;;;;4957984;29;20038;-65
2022/08/11 10:47:33;;;;;;;5.40;2.28;;;26.60;61.40;;;;;;4957938;29;20034;-65
2022/08/11 11:01:04;;;;;;;3.28;1.73;;;26.60;61.30;;;;;;4958047;29;20452;-63
2022/08/11 11:03:33;;;;;;;2.22;1.48;;;26.60;61.20;;;;;;4957838;29;20028;-65
2022/08/11 11:06:32;;;;;;;3.92;2.08;;;26.60;61.20;;;;;;4957046;28;20038;-64
2022/08/11 11:09:13;;;;;;;2.72;1.90;;;26.60;61.40;;;;;;4957564;29;20035;-65
2022/08/11 11:20:22;;;;;;;1.65;1.48;;;26.60;61.20;;;;;;4957585;29;20042;-65
2022/08/11 11:22:51;;;;;;;3.85;1.80;;;26.70;61.10;;;;;;4955897;29;20031;-64
2022/08/11 11:25:23;;;;;;;2.72;1.60;;;26.70;61.90;;;;;;4957123;29;20023;-66
2022/08/11 11:28:25;;;;;;;2.72;1.80;;;26.70;61.10;;;;;;4957257;29;20385;-65
2022/08/11 11:31:19;;;;;;;3.08;1.83;;;26.70;61.30;;;;;;4957233;29;20028;-64
2022/08/11 11:33:58;;;;;;;3.10;1.75;;;26.70;61.30;;;;;;4957147;28;20019;-64
2022/08/11 11:36:54;;;;;;;1.50;1.10;;;26.70;61.40;;;;;;4957105;29;20082;-65
2022/08/11 11:39:24;;;;;;;1.92;1.40;;;26.70;61.40;;;;;;4956587;29;20491;-65
2022/08/11 11:41:52;;;;;;;1.25;1.10;;;26.70;61.10;;;;;;4957085;29;20027;-66
2022/08/11 11:44:21;;;;;;;2.53;1.65;;;26.70;61.20;;;;;;4956977;29;20066;-66
2022/08/11 11:46:47;;;;;;;2.58;1.58;;;26.70;61.20;;;;;;4957030;29;20023;-65
2022/08/11 11:49:18;;;;;;;1.98;1.60;;;26.70;61.10;;;;;;4956811;29;20058;-65
2022/08/11 11:51:46;;;;;;;2.42;1.50;;;26.70;61.20;;;;;;4956736;29;20110;-65
2022/08/11 11:54:16;;;;;;;1.52;1.25;;;26.70;61.20;;;;;;4956472;29;20031;-66
2022/08/11 11:56:44;;;;;;;1.92;1.30;;;26.80;61.20;;;;;;4956712;29;20027;-64
2022/08/11 12:01:56;;;;;;;1.50;1.10;;;26.80;61.20;;;;;;4956466;29;20046;-64
2022/08/11 12:04:22;;;;;;;2.28;1.90;;;26.80;61.10;;;;;;4956732;29;20496;-64
2022/08/11 12:06:48;;;;;;;2.67;1.33;;;26.80;61.10;;;;;;4956460;29;20035;-64
2022/08/11 12:09:17;;;;;;;1.75;1.42;;;26.80;61.10;;;;;;4955970;29;20042;-65
2022/08/11 12:14:28;;;;;;;2.10;1.65;;;26.80;61.00;;;;;;4956455;29;20075;-64
2022/08/11 12:16:55;;;;;;;2.45;1.60;;;26.80;61.10;;;;;;4954231;28;20034;-65
2022/08/11 12:19:27;;;;;;;2.47;1.55;;;26.80;61.10;;;;;;4956328;29;20097;-64
2022/08/11 12:27:28;;;;;;;1.98;1.52;;;26.90;61.00;;;;;;4956243;29;20034;-64
2022/08/11 12:29:57;;;;;;;1.80;1.05;;;26.80;61.10;;;;;;4955024;29;20480;-65
2022/08/11 12:32:26;;;;;;;1.50;1.40;;;26.90;61.10;;;;;;4955939;29;20074;-65
2022/08/11 12:34:52;;;;;;;1.70;1.50;;;26.90;61.10;;;;;;4955871;29;20032;-64
2022/08/11 12:37:28;;;;;;;1.70;1.48;;;26.90;61.10;;;;;;4955663;29;20063;-65
2022/08/11 12:45:43;;;;;;;2.38;1.42;;;26.90;61.10;;;;;;5090556;28;20031;-83
2022/08/11 12:54:37;;;;;;;2.15;1.58;;;26.90;61.10;;;;;;5090523;28;20573;-83
2022/08/11 13:05:24;;;;;;;1.33;1.23;;;26.90;61.10;;;;;;5030100;28;20068;-82
2022/08/11 13:07:51;;;;;;;1.80;1.30;;;26.90;61.00;;;;;;5029891;28;20531;-82
2022/08/11 13:13:06;;;;;;;1.65;1.40;;;26.90;61.00;;;;;;5030345;28;20032;-83
2022/08/11 13:15:32;;;;;;;1.33;1.23;;;27.00;61.10;;;;;;5029676;28;20486;-83
2022/08/11 13:17:59;;;;;;;1.23;1.10;;;27.00;61.10;;;;;;5029935;28;20040;-83
2022/08/11 13:20:26;;;;;;;1.30;1.20;;;27.00;61.10;;;;;;5030000;28;20028;-83
2022/08/11 13:22:54;;;;;;;2.75;1.50;;;27.00;61.10;;;;;;5011863;28;20471;-82
2022/08/11 13:25:25;;;;;;;1.92;1.55;;;27.00;61.10;;;;;;5029821;28;20025;-83
2022/08/11 13:27:53;;;;;;;1.55;1.33;;;27.00;60.90;;;;;;5029947;28;20034;-82
2022/08/11 13:33:06;;;;;;;1.65;1.30;;;27.00;61.00;;;;;;5029856;28;20040;-82
2022/08/11 13:35:32;;;;;;;1.40;1.30;;;27.00;61.10;;;;;;5012044;28;20034;-82
2022/08/11 13:38:01;;;;;;;2.20;1.35;;;27.00;61.00;;;;;;5029816;28;20026;-82
2022/08/11 13:40:28;;;;;;;2.35;1.52;;;27.10;61.10;;;;;;5029438;28;20482;-82
2022/08/11 13:42:54;;;;;;;1.75;1.20;;;27.10;61.10;;;;;;5029613;28;20105;-82
2022/08/11 13:45:22;;;;;;;1.40;1.27;;;27.10;61.10;;;;;;5029436;28;20033;-83
2022/08/11 13:47:50;;;;;;;1.85;1.38;;;27.00;61.00;;;;;;5029259;28;20022;-82
2022/08/11 13:50:17;;;;;;;1.60;1.23;;;27.10;61.10;;;;;;5022041;28;20022;-82
2022/08/11 13:52:45;;;;;;;2.15;1.38;;;27.10;61.00;;;;;;5016090;28;20105;-82
2022/08/11 13:55:20;;;;;;;1.50;1.40;;;27.10;61.00;;;;;;5016127;28;20017;-82
2022/08/11 13:57:52;;;;;;;1.63;1.50;;;27.10;61.00;;;;;;5015894;28;20096;-82
2022/08/11 14:00:18;;;;;;;3.55;1.40;;;27.20;61.10;;;;;;5015898;28;20041;-82
2022/08/11 14:02:47;;;;;;;1.42;1.33;;;27.10;61.00;;;;;;5016102;28;20018;-82
2022/08/11 14:05:18;;;;;;;1.88;1.20;;;27.10;61.00;;;;;;5015823;28;20029;-82
2022/08/11 14:07:50;;;;;;;1.63;1.40;;;27.20;61.10;;;;;;4998090;28;20026;-82
2022/08/11 14:10:27;;;;;;;1.35;1.25;;;27.10;61.00;;;;;;5015856;28;20050;-82
2022/08/11 14:15:46;;;;;;;3.13;1.70;;;27.10;61.00;;;;;;5016018;28;20037;-83
2022/08/11 14:18:27;;;;;;;2.42;1.40;;;27.20;61.10;;;;;;5015602;28;20463;-83
2022/08/11 14:23:46;;;;;;;1.48;1.10;;;27.20;61.00;;;;;;5015760;28;20096;-83
2022/08/11 14:26:25;;;;;;;2.85;1.45;;;27.20;61.00;;;;;;5015513;28;20494;-82
2022/08/11 14:29:00;;;;;;;1.33;1.05;;;27.20;61.00;;;;;;5015444;28;20026;-83
2022/08/11 14:31:28;;;;;;;1.65;1.52;;;27.20;60.90;;;;;;5015682;28;20538;-83
2022/08/11 14:33:56;;;;;;;2.55;1.52;;;27.20;60.90;;;;;;5014953;28;20119;-83
2022/08/11 14:36:23;;;;;;;2.65;1.45;;;27.20;61.00;;;;;;4997735;28;20069;-82
2022/08/11 14:38:52;;;;;;;1.42;1.30;;;27.20;61.00;;;;;;5015321;28;20061;-82
2022/08/11 14:47:04;;;;;;;1.50;1.23;;;27.20;60.90;;;;;;5015340;28;20450;-83
2022/08/11 14:49:36;;;;;;;1.80;1.30;;;27.20;60.90;;;;;;5015088;28;20022;-83
2022/08/11 14:52:07;;;;;;;1.40;1.25;;;27.30;61.00;;;;;;5015025;28;20030;-82
2022/08/11 14:57:19;;;;;;;1.92;1.55;;;27.20;60.90;;;;;;5014781;28;20065;-83
2022/08/11 14:59:47;;;;;;;1.77;1.20;;;27.30;60.90;;;;;;5014966;28;20124;-81
2022/08/11 15:05:01;;;;;;;1.50;1.40;;;27.30;60.80;;;;;;5015149;28;20517;-83
2022/08/11 15:07:31;;;;;;;1.50;1.40;;;27.30;60.80;;;;;;5014701;28;20022;-83
2022/08/11 15:10:02;;;;;;;1.65;1.40;;;27.30;60.80;;;;;;5014755;28;20537;-82
2022/08/11 15:12:29;;;;;;;1.23;1.10;;;27.30;60.70;;;;;;5014619;28;20501;-82
2022/08/11 15:17:42;;;;;;;1.58;1.38;;;27.30;60.70;;;;;;5014383;28;20096;-82
2022/08/11 15:26:06;;;;;;;1.42;1.30;;;27.30;60.70;;;;;;5014681;28;20112;-83
2022/08/11 15:39:34;;;;;;;1.48;1.30;;;27.30;60.60;;;;;;5014133;28;20041;-82
2022/08/11 15:48:01;;;;;;;1.20;1.10;;;27.30;60.60;;;;;;4990285;28;20030;-83
2022/08/11 15:50:31;;;;;;;1.75;1.30;;;27.30;60.60;;;;;;5014318;28;20026;-83
2022/08/11 15:53:06;;;;;;;1.63;1.17;;;27.30;60.50;;;;;;5013879;28;20022;-83
2022/08/11 15:55:36;;;;;;;1.52;1.40;;;27.30;60.50;;;;;;5013967;28;20384;-83
2022/08/11 16:06:48;;;;;;;1.30;1.20;;;27.30;60.40;;;;;;5014082;28;20553;-83
2022/08/11 16:09:17;;;;;;;2.40;1.80;;;27.40;60.50;;;;;;5013621;28;20026;-83
2022/08/11 16:11:44;;;;;;;1.40;1.30;;;27.30;60.30;;;;;;5013678;28;20068;-83
2022/08/11 16:16:57;;;;;;;1.40;1.30;;;27.30;60.10;;;;;;5013521;28;20033;-83
2022/08/11 16:19:25;;;;;;;2.63;1.48;;;27.40;60.30;;;;;;5013392;28;20474;-83
2022/08/11 16:21:54;;;;;;;1.70;1.50;;;27.40;60.30;;;;;;5013426;28;20025;-83
2022/08/11 16:24:21;;;;;;;1.52;1.42;;;27.40;60.30;;;;;;5013517;28;20033;-83
2022/08/11 16:26:49;;;;;;;1.65;1.20;;;27.40;60.20;;;;;;5013400;28;20030;-83
2022/08/11 16:29:16;;;;;;;2.67;1.65;;;27.40;60.20;;;;;;4996081;28;20036;-83
2022/08/11 16:32:15;;;;;;;2.17;1.73;;;27.40;60.20;;;;;;5013509;28;20372;-83
2022/08/11 16:39:58;;;;;;;3.03;1.45;;;27.40;60.20;;;;;;5013274;28;20064;-83
2022/08/11 16:47:52;;;;;;;1.95;1.50;;;27.40;60.00;;;;;;5013521;28;20041;-83
2022/08/11 16:50:19;;;;;;;1.85;1.38;;;27.40;60.10;;;;;;5013334;28;20030;-83
2022/08/11 16:52:45;;;;;;;1.30;1.20;;;27.40;60.00;;;;;;5013210;28;20450;-83
2022/08/11 16:55:11;;;;;;;1.40;1.30;;;27.40;60.00;;;;;;5013486;28;20022;-83
2022/08/11 17:00:25;;;;;;;1.67;1.30;;;27.40;60.00;;;;;;5012690;28;20406;-83
2022/08/11 17:14:15;;;;;;;2.30;1.30;;;27.40;59.90;;;;;;5013140;28;20044;-83
2022/08/11 17:16:44;;;;;;;1.85;1.40;;;27.50;60.00;;;;;;4995234;28;20045;-82
2022/08/11 17:19:27;;;;;;;1.60;1.40;;;27.40;60.00;;;;;;5012906;28;20034;-83
2022/08/11 17:24:47;;;;;;;1.30;1.20;;;27.50;59.90;;;;;;5013417;28;20103;-83
2022/08/11 17:27:15;;;;;;;3.53;1.38;;;27.50;60.00;;;;;;4999080;28;20018;-83
2022/08/11 17:29:55;;;;;;;1.55;1.35;;;27.40;59.80;;;;;;4999013;28;20025;-83
2022/08/11 17:35:32;;;;;;;1.35;1.08;;;27.50;59.90;;;;;;5016568;28;20040;-83
2022/08/11 17:38:04;;;;;;;2.10;1.40;;;27.50;59.80;;;;;;5016547;28;20026;-82
2022/08/11 17:40:35;;;;;;;1.45;1.25;;;27.50;59.70;;;;;;5016082;28;20038;-83
2022/08/11 17:48:36;;;;;;;1.30;1.20;;;27.50;59.80;;;;;;5016404;28;20506;-83
2022/08/11 17:59:51;;;;;;;2.08;1.50;;;27.50;59.70;;;;;;5015926;28;20045;-83
2022/08/11 18:05:26;;;;;;;1.65;1.35;;;27.50;59.90;;;;;;5016191;28;20037;-83
